createdAt,value
2018-10-03T00:01:05.548Z,25.27
2018-10-03T00:05:08.396Z,32.60
2018-10-03T00:09:11.137Z,29.53
2018-10-03T00:13:13.947Z,22.50
2018-10-03T00:17:16.715Z,27.50
2018-10-03T00:21:19.507Z,29.67
2018-10-03T00:25:22.255Z,25.93
2018-10-03T00:29:25.142Z,29.03
2018-10-03T00:33:27.842Z,20.50
2018-10-03T00:37:30.679Z,30.57
2018-10-03T00:41:33.444Z,30.03
2018-10-03T00:45:36.371Z,24.87
2018-10-03T00:49:39.132Z,22.43
2018-10-03T00:53:41.876Z,25.53
2018-10-03T00:57:44.599Z,17.67
2018-10-03T01:01:47.513Z,26.60
2018-10-03T01:05:50.316Z,22.57
2018-10-03T01:09:53.045Z,31.90
2018-10-03T01:13:55.794Z,15.53
2018-10-03T01:17:58.719Z,21.30
2018-10-03T01:22:01.510Z,20.53
2018-10-03T01:26:04.349Z,27.93
2018-10-03T01:30:07.202Z,17.93
2018-10-03T01:34:10.017Z,22.70
2018-10-03T01:38:12.990Z,26.40
2018-10-03T01:42:15.772Z,25.47
2018-10-03T01:46:18.494Z,29.23
2018-10-03T01:50:21.310Z,22.63
2018-10-03T01:54:24.053Z,31.57
2018-10-03T01:58:26.739Z,26.37
2018-10-03T02:02:29.494Z,21.37
2018-10-03T02:06:32.257Z,21.20
2018-10-03T02:10:35.034Z,28.80
2018-10-03T02:14:37.756Z,21.60
2018-10-03T02:18:40.587Z,23.67
2018-10-03T02:22:43.372Z,26.33
2018-10-03T02:26:46.200Z,21.27
2018-10-03T02:30:49.011Z,23.47
2018-10-03T02:34:51.932Z,27.67
2018-10-03T02:38:54.661Z,28.00
2018-10-03T02:42:57.394Z,33.03
2018-10-03T02:47:00.085Z,26.17
2018-10-03T02:51:02.795Z,27.53
2018-10-03T02:55:05.591Z,24.47
2018-10-03T02:59:08.365Z,25.90
2018-10-03T03:03:11.146Z,31.20
2018-10-03T03:07:13.897Z,34.07
2018-10-03T03:11:16.682Z,23.00
2018-10-03T03:15:19.427Z,28.17
2018-10-03T03:19:22.135Z,32.03
2018-10-03T03:23:24.931Z,27.80
2018-10-03T03:27:27.691Z,26.53
2018-10-03T03:31:30.515Z,31.47
2018-10-03T03:35:33.254Z,29.13
2018-10-03T03:39:35.987Z,27.43
2018-10-03T03:43:38.791Z,24.07
2018-10-03T03:47:41.621Z,26.07
2018-10-03T03:51:44.407Z,24.07
2018-10-03T03:55:47.172Z,21.93
2018-10-03T03:59:49.927Z,27.30
2018-10-03T04:03:52.675Z,26.90
2018-10-03T04:07:55.436Z,29.20
2018-10-03T04:11:58.164Z,26.03
2018-10-03T04:16:00.869Z,23.70
2018-10-03T04:20:03.733Z,26.07
2018-10-03T04:24:08.148Z,38.50
2018-10-03T04:28:10.868Z,26.93
2018-10-03T04:32:13.675Z,21.23
2018-10-03T04:36:16.531Z,26.03
2018-10-03T04:40:19.313Z,23.30
2018-10-03T04:44:22.019Z,25.87
2018-10-03T04:48:24.837Z,31.23
2018-10-03T04:52:27.578Z,29.57
2018-10-03T04:56:30.356Z,24.53
2018-10-03T05:00:33.108Z,26.13
2018-10-03T05:04:35.912Z,27.30
2018-10-03T05:08:38.747Z,35.87
2018-10-03T05:12:41.498Z,24.87
2018-10-03T05:16:44.286Z,29.40
2018-10-03T05:20:47.044Z,29.83
2018-10-03T05:24:49.769Z,24.60
2018-10-03T05:28:52.526Z,26.63
2018-10-03T05:32:55.285Z,27.37
2018-10-03T05:36:58.154Z,25.77
2018-10-03T05:41:00.914Z,28.53
2018-10-03T05:45:03.709Z,23.97
2018-10-03T05:49:06.469Z,32.37
2018-10-03T05:53:09.187Z,22.87
2018-10-03T05:57:11.902Z,21.77
2018-10-03T06:01:14.709Z,25.93
2018-10-03T06:05:17.435Z,24.37
2018-10-03T06:09:20.303Z,31.77
2018-10-03T06:13:23.083Z,33.70
2018-10-03T06:17:25.905Z,33.40
2018-10-03T06:21:28.564Z,25.57
2018-10-03T06:25:31.599Z,30.63
2018-10-03T06:29:34.433Z,24.93
2018-10-03T06:33:37.344Z,26.63
2018-10-03T06:37:40.105Z,24.83
2018-10-03T06:41:42.968Z,34.63
2018-10-03T06:45:45.686Z,26.23
2018-10-03T06:49:48.425Z,26.90
2018-10-03T06:53:51.524Z,23.17
2018-10-03T06:57:54.311Z,20.40
2018-10-03T07:01:57.035Z,23.63
2018-10-03T07:05:59.757Z,22.73
2018-10-03T07:10:02.556Z,22.33
2018-10-03T07:14:05.408Z,22.10
2018-10-03T07:18:08.147Z,23.17
2018-10-03T07:22:10.884Z,28.07
2018-10-03T07:26:13.641Z,24.20
2018-10-03T07:30:16.372Z,22.30
2018-10-03T07:34:19.073Z,21.90
2018-10-03T07:38:21.798Z,31.17
2018-10-03T07:42:24.511Z,31.70
2018-10-03T07:46:27.231Z,19.50
2018-10-03T07:50:29.936Z,27.37
2018-10-03T07:54:32.632Z,20.33
2018-10-03T07:58:35.325Z,14.87
2018-10-03T08:02:37.992Z,18.63
2018-10-03T08:06:40.738Z,20.00
2018-10-03T08:10:43.486Z,21.90
2018-10-03T08:14:46.126Z,24.70
2018-10-03T08:18:48.893Z,28.73
2018-10-03T08:22:51.583Z,23.87
2018-10-03T08:26:54.364Z,15.90
2018-10-03T08:30:57.151Z,21.97
2018-10-03T08:34:59.939Z,22.47
2018-10-03T08:39:04.113Z,26.10
2018-10-03T08:43:07.184Z,18.00
2018-10-03T08:47:09.921Z,31.67
2018-10-03T08:51:12.636Z,18.47
2018-10-03T08:55:15.322Z,20.53
2018-10-03T08:59:18.041Z,23.50
2018-10-03T09:03:20.729Z,17.43
2018-10-03T09:07:23.502Z,17.80
2018-10-03T09:11:26.264Z,20.37
2018-10-03T09:15:29.079Z,18.33
2018-10-03T09:19:31.777Z,16.07
2018-10-03T09:23:34.523Z,22.23
2018-10-03T09:27:37.220Z,19.27
2018-10-03T09:31:40.025Z,15.20
2018-10-03T09:35:42.764Z,15.43
2018-10-03T09:39:45.421Z,15.33
2018-10-03T09:43:48.203Z,16.63
2018-10-03T09:47:50.857Z,15.73
2018-10-03T09:51:53.542Z,20.37
2018-10-03T09:55:56.277Z,20.17
2018-10-03T09:59:59.008Z,21.83
2018-10-03T10:04:03.007Z,10.73
2018-10-03T10:08:05.741Z,14.53
2018-10-03T10:12:08.474Z,9.87
2018-10-03T10:16:11.199Z,17.57
2018-10-03T10:20:13.969Z,13.27
2018-10-03T10:24:16.649Z,12.87
2018-10-03T10:28:19.341Z,11.67
2018-10-03T10:32:22.104Z,10.43
2018-10-03T10:36:24.780Z,16.57
2018-10-03T10:40:27.685Z,11.97
2018-10-03T10:44:30.217Z,10.20
2018-10-03T10:48:32.895Z,12.87
2018-10-03T10:52:35.672Z,10.70
2018-10-03T10:56:38.400Z,11.33
2018-10-03T11:00:41.144Z,8.43
2018-10-03T11:04:43.890Z,12.73
2018-10-03T11:08:46.540Z,15.37
2018-10-03T11:12:49.222Z,14.93
2018-10-03T11:16:51.876Z,12.10
2018-10-03T11:20:54.575Z,9.70
2018-10-03T11:24:57.524Z,9.70
2018-10-03T11:29:00.073Z,16.03
2018-10-03T11:33:02.753Z,12.00
2018-10-03T11:41:15.040Z,10.57
2018-10-03T11:45:17.799Z,10.00
2018-10-03T11:49:20.459Z,18.07
2018-10-03T11:53:23.142Z,12.13
2018-10-03T11:57:25.787Z,8.67
2018-10-03T12:01:28.639Z,9.50
2018-10-03T12:05:31.336Z,9.87
2018-10-03T12:09:34.055Z,14.33
2018-10-03T12:13:36.861Z,12.27
2018-10-03T12:17:39.562Z,19.47
2018-10-03T12:21:42.330Z,7.83
2018-10-03T12:25:45.146Z,7.10
2018-10-03T12:29:47.869Z,9.43
2018-10-03T12:33:50.683Z,9.00
2018-10-03T12:37:53.360Z,6.93
2018-10-03T12:41:56.019Z,10.83
2018-10-03T12:45:58.731Z,10.73
2018-10-03T12:50:01.427Z,8.77
2018-10-03T12:54:04.169Z,14.07
2018-10-03T12:58:07.110Z,10.90
2018-10-03T13:02:09.845Z,8.67
2018-10-03T13:06:12.606Z,6.60
2018-10-03T13:10:15.307Z,7.40
2018-10-03T13:14:18.015Z,10.70
2018-10-03T13:18:20.734Z,7.73
2018-10-03T13:22:23.526Z,15.53
2018-10-03T13:26:26.249Z,12.87
2018-10-03T13:30:29.030Z,12.23
2018-10-03T13:34:31.769Z,10.30
2018-10-03T13:38:34.486Z,6.83
2018-10-03T13:42:37.133Z,9.30
2018-10-03T13:46:39.890Z,12.90
2018-10-03T13:50:42.639Z,6.93
2018-10-03T13:54:45.332Z,12.53
2018-10-03T13:58:48.000Z,12.23
2018-10-03T14:02:50.658Z,6.23
2018-10-03T14:06:53.349Z,11.07
2018-10-03T14:10:56.115Z,10.53
2018-10-03T14:14:59.095Z,7.67
2018-10-03T14:19:01.880Z,10.70
2018-10-03T14:23:04.982Z,10.07
2018-10-03T14:27:09.110Z,7.67
2018-10-03T14:31:12.120Z,7.83
2018-10-03T14:35:16.139Z,6.27
2018-10-03T14:39:21.005Z,7.60
2018-10-03T14:43:23.771Z,9.23
2018-10-03T14:47:26.845Z,10.77
2018-10-03T14:51:29.705Z,9.30
2018-10-03T14:55:32.477Z,12.47
2018-10-03T14:59:35.255Z,11.57
2018-10-03T15:03:38.928Z,11.77
2018-10-03T15:07:41.719Z,8.07
2018-10-03T15:11:44.558Z,12.40
2018-10-03T15:15:47.397Z,10.07
2018-10-03T15:19:50.201Z,9.87
2018-10-03T15:23:53.030Z,11.20
2018-10-03T15:27:55.835Z,9.87
2018-10-03T15:31:58.805Z,10.27
2018-10-03T15:36:01.564Z,12.83
2018-10-03T15:40:04.498Z,7.23
2018-10-03T15:44:07.327Z,11.90
2018-10-03T15:48:10.406Z,15.83
2018-10-03T15:52:13.301Z,12.67
2018-10-03T15:56:16.293Z,11.87
2018-10-03T16:00:19.705Z,8.27
2018-10-03T16:04:22.745Z,13.10
2018-10-03T16:08:25.563Z,10.87
2018-10-03T16:12:28.442Z,11.23
2018-10-03T16:16:31.193Z,9.30
2018-10-03T16:20:34.290Z,14.10
2018-10-03T16:24:37.129Z,15.97
2018-10-03T16:28:39.917Z,11.07
2018-10-03T16:32:42.667Z,11.53
2018-10-03T16:36:45.617Z,11.67
2018-10-03T16:40:48.439Z,18.67
2018-10-03T16:44:51.265Z,15.20
2018-10-03T16:48:54.160Z,10.73
2018-10-03T16:52:56.925Z,19.80
2018-10-03T16:56:59.790Z,25.07
2018-10-03T17:01:02.598Z,11.20
2018-10-03T17:05:05.648Z,15.10
2018-10-03T17:09:08.551Z,14.37
2018-10-03T17:13:11.503Z,16.40
2018-10-03T17:17:14.679Z,16.97
2018-10-03T17:21:17.583Z,17.13
2018-10-03T17:25:20.246Z,16.67
2018-10-03T17:29:23.454Z,13.40
2018-10-03T17:33:26.259Z,16.00
2018-10-03T17:37:29.131Z,13.47
2018-10-03T17:41:32.406Z,12.17
2018-10-03T17:45:36.541Z,17.90
2018-10-03T17:49:40.320Z,14.10
2018-10-03T17:54:47.164Z,14.00
2018-10-03T17:58:51.518Z,10.80
2018-10-03T18:02:54.772Z,16.37
2018-10-03T18:06:58.114Z,13.73
2018-10-03T18:11:01.315Z,16.37
2018-10-03T18:15:04.165Z,18.00
2018-10-03T18:19:07.145Z,16.73
2018-10-03T18:23:11.016Z,19.13
2018-10-03T18:27:14.188Z,16.43
2018-10-03T18:31:17.025Z,13.33
2018-10-03T18:35:19.920Z,17.13
2018-10-03T18:39:22.894Z,19.57
2018-10-03T18:43:25.620Z,19.43
2018-10-03T18:47:28.576Z,20.03
2018-10-03T18:51:31.657Z,19.20
2018-10-03T18:55:34.671Z,18.10
2018-10-03T18:59:37.674Z,17.13
2018-10-03T19:03:40.392Z,20.40
2018-10-03T19:07:43.222Z,20.07
2018-10-03T19:11:46.042Z,10.83
2018-10-03T19:15:48.813Z,22.57
2018-10-03T19:19:51.828Z,13.53
2018-10-03T19:23:54.904Z,18.13
2018-10-03T19:27:57.948Z,17.73
2018-10-03T19:32:01.136Z,18.30
2018-10-03T19:36:04.178Z,16.73
2018-10-03T19:40:07.406Z,12.20
2018-10-03T19:44:10.695Z,14.37
2018-10-03T19:48:13.661Z,15.37
2018-10-03T19:52:16.605Z,17.70
2018-10-03T19:56:19.543Z,15.60
2018-10-03T20:00:22.335Z,16.90
2018-10-03T20:04:25.332Z,16.13
2018-10-03T20:08:28.120Z,22.97
2018-10-03T20:12:32.703Z,24.03
2018-10-03T20:16:35.501Z,14.53
2018-10-03T20:20:38.285Z,13.60
2018-10-03T20:24:41.231Z,15.20
2018-10-03T20:28:44.391Z,17.23
2018-10-03T20:32:47.405Z,15.40
2018-10-03T20:36:50.180Z,18.33
2018-10-03T20:40:53.218Z,13.40
2018-10-03T20:44:56.023Z,16.17
2018-10-03T20:48:58.796Z,16.07
2018-10-03T20:53:01.601Z,20.67
2018-10-03T20:57:04.600Z,16.63
2018-10-03T21:01:07.371Z,19.87
2018-10-03T21:05:10.117Z,19.93
2018-10-03T21:09:12.892Z,14.30
2018-10-03T21:13:15.744Z,17.53
2018-10-03T21:17:18.761Z,21.13
2018-10-03T21:21:21.835Z,19.73
2018-10-03T21:25:24.664Z,18.73
2018-10-03T21:29:27.557Z,23.93
2018-10-03T21:33:30.279Z,20.63
2018-10-03T21:37:33.144Z,16.37
2018-10-03T21:41:36.063Z,19.23
2018-10-03T21:45:39.054Z,22.00
2018-10-03T21:49:41.861Z,18.00
2018-10-03T21:53:44.600Z,19.30
2018-10-03T21:57:47.372Z,24.77
2018-10-03T22:01:50.364Z,21.40
2018-10-03T22:05:53.295Z,16.50
2018-10-03T22:09:56.148Z,18.30
2018-10-03T22:13:58.976Z,15.10
2018-10-03T22:18:01.752Z,20.00
2018-10-03T22:22:05.196Z,19.30
2018-10-03T22:26:07.965Z,26.57
2018-10-03T22:30:10.778Z,27.70
2018-10-03T22:34:13.678Z,20.03
2018-10-03T22:38:16.496Z,19.60
2018-10-03T22:42:19.476Z,21.30
2018-10-03T22:46:22.372Z,19.13
2018-10-03T22:50:25.237Z,18.23
2018-10-03T22:54:28.122Z,17.93
2018-10-03T22:58:30.943Z,23.90
2018-10-03T23:02:33.805Z,18.17
2018-10-03T23:06:36.698Z,25.17
2018-10-03T23:10:39.494Z,24.20
2018-10-03T23:14:42.434Z,21.50
2018-10-03T23:18:45.285Z,16.17
2018-10-03T23:22:48.076Z,20.10
2018-10-03T23:26:50.922Z,21.27
2018-10-03T23:30:53.633Z,19.93
2018-10-03T23:34:56.341Z,22.77
2018-10-03T23:38:59.115Z,27.63
2018-10-03T23:43:01.899Z,20.97
2018-10-03T23:47:04.691Z,18.60
2018-10-03T23:51:07.427Z,21.80
2018-10-03T23:55:10.193Z,23.53
2018-10-03T23:59:12.927Z,12.87
